Time;durP1;ratioP1;P1;durP2;ratioP2;P2;SDS_P1;SDS_P2;PMS_P1;PMS_P2;Temp;Humidity;BMP_temperature;BMP_pressure;BME280_temperature;BME280_humidity;BME280_pressure;Samples;Min_cycle;Max_cycle;Signal;HPM_P1;HPM_P2
2023/09/11 04:00:18;;;;;;;10.37;9.00;;;15.20;99.90;;;;;;5936324;23;20849;-72
2023/09/11 04:02:44;;;;;;;14.00;10.37;;;15.20;99.90;;;;;;4940048;28;20482;-72
2023/09/11 04:05:11;;;;;;;12.73;8.63;;;15.20;99.90;;;;;;4942202;29;20514;-72
2023/09/11 04:07:38;;;;;;;11.90;8.47;;;15.20;99.90;;;;;;4941277;28;20473;-72
2023/09/11 04:10:06;;;;;;;9.77;8.87;;;15.20;99.90;;;;;;4940515;29;20579;-72
2023/09/11 04:12:33;;;;;;;12.40;9.97;;;15.20;99.90;;;;;;4922136;29;20494;-72
2023/09/11 04:15:00;;;;;;;14.97;10.03;;;15.20;99.90;;;;;;4973512;23;20488;-70
2023/09/11 04:17:28;;;;;;;15.00;10.07;;;15.20;99.90;;;;;;4973063;28;20480;-70
2023/09/11 04:19:54;;;;;;;12.90;10.30;;;15.20;99.90;;;;;;4971943;28;20996;-70
2023/09/11 04:22:21;;;;;;;12.27;9.50;;;15.10;99.90;;;;;;4971280;28;20478;-69
2023/09/11 04:24:48;;;;;;;11.60;8.40;;;15.10;99.90;;;;;;4971039;28;20483;-69
2023/09/11 04:27:14;;;;;;;13.73;9.30;;;15.10;99.90;;;;;;4964486;28;20810;-70
2023/09/11 04:29:42;;;;;;;13.37;9.67;;;15.10;99.90;;;;;;4971451;28;20476;-69
2023/09/11 04:32:09;;;;;;;13.10;10.10;;;15.10;99.90;;;;;;4968245;28;20534;-70
2023/09/11 04:34:37;;;;;;;12.63;10.13;;;15.10;99.90;;;;;;4969040;28;20494;-70
2023/09/11 04:37:04;;;;;;;11.00;9.80;;;15.10;99.90;;;;;;4961680;28;20484;-69
2023/09/11 04:39:30;;;;;;;12.40;8.90;;;15.10;99.90;;;;;;4961308;28;20471;-69
2023/09/11 04:41:57;;;;;;;10.47;8.90;;;15.10;99.90;;;;;;4971226;28;20552;-70
2023/09/11 04:44:24;;;;;;;12.60;7.93;;;15.10;99.90;;;;;;4970060;28;20494;-70
2023/09/11 04:46:51;;;;;;;10.90;8.93;;;15.10;99.90;;;;;;4961718;28;20472;-69
2023/09/11 04:49:17;;;;;;;12.03;8.13;;;15.10;99.90;;;;;;4963323;28;20842;-69
2023/09/11 04:51:45;;;;;;;11.40;9.60;;;15.10;99.90;;;;;;4972775;28;20471;-70
2023/09/11 04:54:12;;;;;;;11.33;9.43;;;15.10;99.90;;;;;;4972426;28;20476;-70
2023/09/11 04:56:39;;;;;;;13.90;10.00;;;15.10;99.90;;;;;;4969892;28;20471;-70
2023/09/11 04:59:05;;;;;;;9.90;8.77;;;15.10;99.90;;;;;;4968703;28;20469;-70
2023/09/11 05:01:33;;;;;;;9.83;8.80;;;15.10;99.90;;;;;;4968235;28;20471;-69
2023/09/11 05:04:00;;;;;;;11.93;9.13;;;15.10;99.90;;;;;;4964848;28;20461;-70
2023/09/11 05:06:27;;;;;;;13.83;9.67;;;15.10;99.90;;;;;;4960875;28;20970;-69
2023/09/11 05:08:55;;;;;;;14.80;10.50;;;15.10;99.90;;;;;;4965055;28;20463;-70
2023/09/11 05:11:22;;;;;;;10.07;9.00;;;15.10;99.90;;;;;;4970972;28;20912;-68
2023/09/11 05:13:49;;;;;;;12.40;9.70;;;15.10;99.90;;;;;;4968059;28;20468;-70
2023/09/11 05:16:17;;;;;;;16.53;9.97;;;15.20;99.90;;;;;;4968283;28;20467;-69
2023/09/11 05:18:44;;;;;;;15.70;10.67;;;15.20;99.90;;;;;;4959200;28;20832;-71
2023/09/11 05:21:10;;;;;;;12.10;9.63;;;15.20;99.90;;;;;;4954449;28;20465;-69
2023/09/11 05:23:37;;;;;;;13.73;10.27;;;15.20;99.90;;;;;;4970943;28;20464;-69
2023/09/11 05:26:08;;;;;;;13.83;9.57;;;15.20;99.90;;;;;;4969550;28;20509;-68
2023/09/11 05:28:34;;;;;;;13.23;9.97;;;15.20;99.90;;;;;;4968092;28;20456;-68
2023/09/11 05:31:01;;;;;;;15.37;10.10;;;15.20;99.90;;;;;;4958407;28;20575;-68
2023/09/11 05:33:28;;;;;;;13.90;10.00;;;15.20;99.90;;;;;;4953204;28;20465;-69
2023/09/11 05:35:54;;;;;;;13.27;9.00;;;15.30;99.90;;;;;;4964952;28;20566;-69
2023/09/11 05:38:21;;;;;;;15.23;12.10;;;15.30;99.90;;;;;;4972576;28;20484;-70
2023/09/11 05:40:48;;;;;;;11.90;9.60;;;15.30;99.90;;;;;;4970776;28;20468;-69
2023/09/11 05:43:16;;;;;;;11.30;9.47;;;15.30;99.90;;;;;;4968931;28;20472;-68
2023/09/11 05:45:43;;;;;;;13.03;9.97;;;15.30;99.90;;;;;;4973430;28;20494;-69
2023/09/11 05:48:11;;;;;;;11.20;7.80;;;15.40;99.90;;;;;;4959563;28;20483;-69
2023/09/11 05:50:38;;;;;;;16.93;9.70;;;15.40;99.90;;;;;;4972059;28;20523;-70
2023/09/11 05:53:06;;;;;;;10.37;9.30;;;15.50;99.90;;;;;;4974268;28;20467;-68
2023/09/11 05:55:33;;;;;;;10.00;8.80;;;15.50;99.90;;;;;;4966571;28;20550;-69
2023/09/11 05:58:00;;;;;;;11.63;8.60;;;15.50;99.90;;;;;;4965408;28;20998;-69
2023/09/11 06:00:28;;;;;;;12.37;8.47;;;15.50;99.90;;;;;;4971191;28;20476;-69
2023/09/11 06:02:55;;;;;;;11.23;8.53;;;15.60;99.90;;;;;;4965576;28;20878;-70
2023/09/11 06:05:22;;;;;;;12.60;9.57;;;15.60;99.90;;;;;;4958123;28;20488;-69
2023/09/11 06:07:49;;;;;;;11.20;9.40;;;15.60;99.90;;;;;;4960767;28;20464;-69
2023/09/11 06:10:16;;;;;;;13.33;10.30;;;15.70;99.90;;;;;;4960224;28;20491;-69
2023/09/11 06:12:42;;;;;;;10.30;9.20;;;15.70;99.90;;;;;;4968885;28;20467;-69
2023/09/11 06:15:10;;;;;;;10.87;9.27;;;15.80;99.90;;;;;;4964885;28;20497;-69
2023/09/11 06:17:38;;;;;;;10.70;8.97;;;15.80;99.90;;;;;;4963247;28;20500;-69
2023/09/11 06:20:09;;;;;;;15.13;8.90;;;15.90;99.90;;;;;;4968504;28;20488;-70
2023/09/11 06:22:36;;;;;;;12.47;8.57;;;15.90;99.90;;;;;;4961918;28;20474;-70
2023/09/11 06:25:04;;;;;;;9.57;8.50;;;15.90;99.90;;;;;;4963459;28;20485;-69
2023/09/11 06:27:31;;;;;;;9.60;8.07;;;15.90;99.90;;;;;;4961089;28;20480;-68
2023/09/11 06:29:58;;;;;;;10.03;8.80;;;16.00;99.90;;;;;;4960611;28;20502;-70
2023/09/11 06:32:25;;;;;;;12.50;8.93;;;16.10;99.90;;;;;;4963550;28;20464;-70
2023/09/11 06:34:53;;;;;;;9.93;8.90;;;16.10;99.90;;;;;;4962101;28;20812;-71
2023/09/11 06:37:20;;;;;;;11.57;8.70;;;16.20;99.90;;;;;;4959472;28;20471;-71
2023/09/11 06:39:47;;;;;;;8.50;7.80;;;16.30;99.90;;;;;;4966659;28;20469;-70
2023/09/11 06:42:20;;;;;;;10.80;8.20;;;16.40;99.90;;;;;;4959134;28;20467;-71
2023/09/11 06:44:46;;;;;;;12.30;8.47;;;16.50;99.90;;;;;;4970295;28;20540;-69
2023/09/11 06:47:13;;;;;;;9.50;8.27;;;16.50;99.90;;;;;;4971517;28;20465;-70
2023/09/11 06:49:40;;;;;;;11.07;7.57;;;16.70;99.90;;;;;;4958506;28;20462;-70
2023/09/11 06:52:08;;;;;;;9.63;8.50;;;16.80;99.90;;;;;;4970306;28;20473;-70
2023/09/11 06:54:35;;;;;;;10.10;7.67;;;16.90;99.90;;;;;;4955948;28;20832;-69
2023/09/11 06:57:02;;;;;;;9.30;7.87;;;17.00;99.90;;;;;;4957978;28;20503;-70
2023/09/11 06:59:28;;;;;;;9.53;7.80;;;17.10;99.90;;;;;;4955286;28;20862;-70
2023/09/11 07:01:55;;;;;;;10.53;9.50;;;17.20;99.90;;;;;;4963215;28;20479;-69
2023/09/11 07:04:22;;;;;;;11.37;8.60;;;17.40;99.90;;;;;;4962108;28;20491;-69
2023/09/11 07:06:48;;;;;;;12.80;8.07;;;17.50;99.90;;;;;;4956781;28;20842;-70
2023/09/11 07:09:16;;;;;;;13.50;10.13;;;17.60;99.90;;;;;;4969231;28;20478;-70
2023/09/11 07:11:43;;;;;;;10.00;7.40;;;17.80;99.90;;;;;;4957444;28;20464;-70
2023/09/11 07:14:12;;;;;;;11.00;8.80;;;17.90;99.90;;;;;;4961170;28;20499;-70
2023/09/11 07:16:39;;;;;;;9.43;8.30;;;17.90;99.90;;;;;;4963582;28;20522;-70
2023/09/11 07:19:06;;;;;;;7.43;6.70;;;18.00;99.90;;;;;;4963866;28;20495;-71
2023/09/11 07:21:32;;;;;;;10.93;8.50;;;18.10;99.90;;;;;;4971776;28;20494;-71
2023/09/11 07:23:59;;;;;;;8.53;7.73;;;18.30;99.90;;;;;;4971476;28;20468;-71
2023/09/11 07:26:27;;;;;;;9.87;8.00;;;18.30;99.90;;;;;;4974491;28;20466;-70
2023/09/11 07:28:55;;;;;;;9.80;7.30;;;18.50;99.90;;;;;;4966305;28;20844;-70
2023/09/11 07:31:22;;;;;;;7.37;6.67;;;18.50;99.90;;;;;;4965060;28;20468;-70
2023/09/11 07:33:49;;;;;;;8.30;7.53;;;18.60;99.90;;;;;;4961446;28;20471;-71
2023/09/11 07:36:17;;;;;;;7.67;6.90;;;18.80;99.90;;;;;;4964296;28;20472;-69
2023/09/11 07:38:45;;;;;;;10.50;8.70;;;18.80;99.90;;;;;;4955189;28;20481;-69
2023/09/11 07:41:11;;;;;;;8.13;7.33;;;18.90;99.90;;;;;;4963205;28;20472;-72
2023/09/11 07:43:39;;;;;;;8.23;7.03;;;18.90;99.90;;;;;;4957398;28;20477;-69
2023/09/11 07:46:06;;;;;;;7.93;7.33;;;19.00;99.90;;;;;;4960817;28;20496;-69
2023/09/11 07:48:35;;;;;;;8.20;7.17;;;19.00;99.90;;;;;;4964883;28;20839;-70
2023/09/11 07:51:02;;;;;;;7.57;6.87;;;19.10;99.90;;;;;;4966078;28;20514;-69
2023/09/11 07:53:28;;;;;;;8.23;7.27;;;19.10;99.90;;;;;;4972480;28;20468;-70
2023/09/11 07:55:55;;;;;;;8.03;7.23;;;19.20;99.90;;;;;;4967961;28;20504;-70
2023/09/11 07:58:22;;;;;;;8.33;7.53;;;19.30;99.90;;;;;;4966492;28;20491;-70
2023/09/11 08:00:50;;;;;;;8.33;7.43;;;19.40;99.90;;;;;;4960018;28;20478;-70
2023/09/11 08:03:17;;;;;;;8.47;7.77;;;19.50;99.90;;;;;;4956903;28;20820;-71
2023/09/11 08:05:44;;;;;;;6.60;6.10;;;19.60;99.90;;;;;;4954455;28;20574;-69
2023/09/11 08:08:10;;;;;;;9.30;8.50;;;19.70;99.90;;;;;;4954739;28;20490;-69
2023/09/11 08:10:37;;;;;;;9.03;8.17;;;19.90;99.90;;;;;;4961287;28;20552;-71
2023/09/11 08:13:04;;;;;;;8.43;7.53;;;19.90;99.90;;;;;;4969655;28;20480;-69
2023/09/11 08:15:31;;;;;;;8.27;7.47;;;20.10;99.90;;;;;;4957110;28;20625;-69
2023/09/11 08:17:59;;;;;;;8.00;7.10;;;20.20;99.90;;;;;;4967751;28;20466;-71
2023/09/11 08:20:26;;;;;;;6.83;6.20;;;20.30;99.90;;;;;;4953848;28;20465;-71
2023/09/11 08:22:52;;;;;;;7.47;6.73;;;20.40;99.90;;;;;;4954831;28;20822;-71
2023/09/11 08:25:19;;;;;;;7.70;7.03;;;20.50;99.90;;;;;;4962591;28;20492;-70
2023/09/11 08:27:46;;;;;;;8.00;7.13;;;20.60;99.90;;;;;;4957160;28;20468;-70
2023/09/11 08:30:13;;;;;;;9.13;6.60;;;20.60;99.90;;;;;;4953877;28;20464;-71
2023/09/11 08:32:40;;;;;;;7.17;6.50;;;20.60;99.90;;;;;;4954303;28;20470;-71
2023/09/11 08:35:08;;;;;;;7.77;6.97;;;20.70;99.90;;;;;;4963523;28;20492;-71
2023/09/11 08:37:35;;;;;;;8.00;7.30;;;20.90;99.90;;;;;;4953565;28;20507;-71
2023/09/11 08:40:03;;;;;;;7.53;6.93;;;21.10;99.90;;;;;;4954189;28;20491;-72
2023/09/11 08:42:30;;;;;;;8.07;7.13;;;21.20;99.90;;;;;;4958143;28;20471;-70
2023/09/11 08:44:56;;;;;;;6.70;6.10;;;21.50;99.90;;;;;;4961866;28;20997;-71
2023/09/11 08:47:29;;;;;;;5.40;5.00;;;21.60;99.90;;;;;;4965419;28;20487;-70
2023/09/11 08:49:58;;;;;;;6.70;6.10;;;21.70;99.90;;;;;;4961358;28;20472;-70
2023/09/11 08:52:29;;;;;;;7.70;7.00;;;21.80;99.90;;;;;;4962172;28;20981;-70
2023/09/11 08:55:00;;;;;;;7.30;6.17;;;21.90;99.90;;;;;;4953757;28;20515;-71
2023/09/11 08:57:29;;;;;;;9.20;8.30;;;22.00;99.90;;;;;;4970751;28;20502;-70
2023/09/11 09:00:04;;;;;;;7.63;6.93;;;22.00;99.90;;;;;;4972349;28;20495;-71
2023/09/11 09:02:33;;;;;;;7.30;6.80;;;22.10;99.90;;;;;;4964210;28;20472;-71
2023/09/11 09:05:03;;;;;;;7.63;7.00;;;22.20;99.90;;;;;;4970271;28;20515;-70
2023/09/11 09:07:32;;;;;;;10.10;9.03;;;22.30;99.90;;;;;;4963493;28;20464;-71
2023/09/11 09:09:59;;;;;;;7.87;6.90;;;22.40;99.90;;;;;;4972092;28;20463;-72
2023/09/11 09:12:27;;;;;;;7.70;7.17;;;22.50;99.90;;;;;;4970387;28;20472;-70
2023/09/11 09:14:54;;;;;;;7.10;6.50;;;22.60;99.90;;;;;;4968285;28;20529;-70
2023/09/11 09:17:21;;;;;;;7.80;7.00;;;22.70;99.90;;;;;;4970756;28;20467;-71
2023/09/11 09:19:48;;;;;;;7.33;6.73;;;22.70;99.90;;;;;;4970996;28;20518;-70
2023/09/11 09:22:15;;;;;;;7.20;6.50;;;23.00;99.90;;;;;;4965609;28;20501;-69
2023/09/11 09:24:51;;;;;;;8.33;7.63;;;23.10;99.90;;;;;;4963584;28;20518;-72
2023/09/11 09:27:18;;;;;;;9.53;7.63;;;23.20;99.90;;;;;;4970845;28;20958;-72
2023/09/11 09:29:45;;;;;;;7.40;6.90;;;23.20;99.90;;;;;;4960431;28;20476;-72
2023/09/11 09:32:12;;;;;;;6.17;5.67;;;23.30;99.90;;;;;;4963787;28;20470;-71
2023/09/11 09:34:48;;;;;;;7.40;6.90;;;23.30;99.90;;;;;;4969842;28;21145;-72
2023/09/11 09:37:16;;;;;;;9.73;7.00;;;23.40;99.90;;;;;;4968801;28;20973;-72
2023/09/11 09:39:44;;;;;;;8.00;7.30;;;23.50;99.90;;;;;;4965888;28;20478;-72
2023/09/11 09:42:12;;;;;;;6.53;6.13;;;23.60;99.90;;;;;;4967567;28;20487;-71
2023/09/11 09:44:40;;;;;;;7.23;6.70;;;23.70;99.90;;;;;;4963704;28;20491;-72
2023/09/11 09:47:09;;;;;;;7.20;6.70;;;23.70;99.90;;;;;;4966375;28;20480;-71
2023/09/11 09:49:44;;;;;;;6.73;6.27;;;23.80;99.90;;;;;;4970142;28;20462;-72
2023/09/11 09:52:11;;;;;;;7.43;6.93;;;23.70;99.90;;;;;;4971176;28;20490;-72
2023/09/11 09:54:46;;;;;;;7.30;6.70;;;23.90;99.90;;;;;;4964511;28;20480;-72
2023/09/11 09:57:15;;;;;;;7.33;6.60;;;24.20;99.90;;;;;;4967701;28;20822;-71
2023/09/11 09:59:43;;;;;;;7.17;6.57;;;24.20;99.90;;;;;;4961754;28;20493;-72
2023/09/11 10:02:12;;;;;;;7.63;7.10;;;24.20;99.90;;;;;;4966443;28;20473;-72
2023/09/11 10:04:39;;;;;;;6.10;5.60;;;24.20;99.90;;;;;;4966585;28;20492;-72
2023/09/11 10:07:07;;;;;;;7.03;6.33;;;24.50;99.90;;;;;;4968478;28;20500;-72
2023/09/11 10:09:34;;;;;;;6.93;6.40;;;24.80;99.90;;;;;;4968109;28;20508;-72
2023/09/11 10:12:09;;;;;;;6.60;6.20;;;25.00;99.90;;;;;;4962548;28;20531;-72
2023/09/11 10:14:38;;;;;;;7.63;6.93;;;24.90;99.90;;;;;;4966881;28;20510;-72
2023/09/11 10:17:05;;;;;;;7.23;6.73;;;24.90;99.90;;;;;;4960477;28;20480;-72
2023/09/11 10:19:33;;;;;;;6.63;6.03;;;25.00;99.90;;;;;;4967334;28;21009;-72
2023/09/11 10:22:00;;;;;;;5.57;5.17;;;25.20;99.90;;;;;;4969497;28;20472;-71
2023/09/11 10:24:27;;;;;;;7.33;6.73;;;25.20;99.90;;;;;;4960368;28;20495;-72
2023/09/11 10:26:57;;;;;;;6.40;6.00;;;25.10;99.90;;;;;;4968671;28;20470;-71
2023/09/11 10:29:32;;;;;;;7.03;6.43;;;25.00;99.90;;;;;;4962401;28;20492;-71
2023/09/11 10:32:07;;;;;;;6.53;6.03;;;25.00;99.90;;;;;;4969663;28;20465;-71
2023/09/11 10:34:35;;;;;;;7.20;6.60;;;25.00;99.90;;;;;;4968126;28;21002;-71
2023/09/11 10:37:01;;;;;;;9.10;6.37;;;25.00;99.90;;;;;;4973674;28;20493;-71
2023/09/11 10:39:28;;;;;;;7.67;7.13;;;25.30;99.90;;;;;;4971740;28;20490;-71
2023/09/11 10:41:55;;;;;;;6.30;5.80;;;25.30;99.90;;;;;;4964762;28;20479;-72
2023/09/11 10:44:22;;;;;;;7.53;6.83;;;25.50;99.90;;;;;;4972772;28;20488;-71
2023/09/11 10:46:50;;;;;;;6.53;6.10;;;25.80;99.90;;;;;;4965567;28;20471;-71
2023/09/11 10:49:20;;;;;;;6.33;5.83;;;26.00;99.90;;;;;;4974646;28;20463;-71
2023/09/11 10:51:47;;;;;;;6.77;6.23;;;26.10;99.90;;;;;;4964904;28;20463;-70
2023/09/11 10:54:15;;;;;;;7.07;6.37;;;26.10;99.90;;;;;;4968581;28;20478;-72
2023/09/11 10:56:43;;;;;;;7.40;6.70;;;26.00;99.90;;;;;;4966186;28;20477;-71
2023/09/11 10:59:10;;;;;;;7.60;7.00;;;26.10;99.90;;;;;;4970140;28;20865;-71
2023/09/11 11:01:37;;;;;;;6.30;5.90;;;26.10;99.90;;;;;;4969753;28;20467;-71
2023/09/11 11:04:05;;;;;;;6.80;6.30;;;26.30;99.90;;;;;;4962310;28;20468;-71
2023/09/11 11:06:33;;;;;;;6.27;5.60;;;26.30;99.90;;;;;;4963488;28;20536;-71
2023/09/11 11:09:01;;;;;;;6.03;5.63;;;26.30;99.90;;;;;;4965459;28;20475;-71
2023/09/11 11:11:29;;;;;;;6.40;5.80;;;26.10;99.90;;;;;;4961748;28;21737;-71
2023/09/11 11:14:12;;;;;;;5.50;5.13;;;26.20;99.90;;;;;;4960680;28;20976;-72
2023/09/11 11:16:39;;;;;;;6.30;5.80;;;26.40;99.90;;;;;;4964562;28;20503;-72
2023/09/11 11:19:07;;;;;;;5.17;4.83;;;26.50;99.90;;;;;;4971472;28;20986;-72
2023/09/11 11:21:42;;;;;;;7.50;4.70;;;26.40;99.90;;;;;;4973547;28;20475;-72
2023/09/11 11:24:10;;;;;;;5.53;5.03;;;26.30;99.90;;;;;;4972064;28;20542;-70
2023/09/11 11:26:37;;;;;;;4.90;4.50;;;26.40;99.90;;;;;;4966288;28;20478;-72
2023/09/11 11:29:05;;;;;;;5.40;5.00;;;26.40;99.90;;;;;;4965752;28;20550;-71
2023/09/11 11:31:32;;;;;;;5.43;5.13;;;26.50;99.90;;;;;;4968667;28;20949;-71
2023/09/11 11:34:00;;;;;;;4.53;4.23;;;26.50;99.90;;;;;;4969373;28;20471;-71
2023/09/11 11:36:29;;;;;;;5.10;4.83;;;26.60;99.90;;;;;;4972325;28;20471;-71
2023/09/11 11:38:59;;;;;;;4.87;4.57;;;26.70;99.90;;;;;;4966319;28;20511;-71
2023/09/11 11:41:26;;;;;;;4.93;4.73;;;26.90;99.90;;;;;;4961129;28;20468;-68
2023/09/11 11:43:53;;;;;;;5.33;5.03;;;27.10;99.90;;;;;;4966401;28;20489;-71
2023/09/11 11:46:25;;;;;;;5.73;5.20;;;27.00;99.90;;;;;;4967856;28;20989;-73
2023/09/11 11:48:52;;;;;;;4.30;4.10;;;27.00;99.90;;;;;;4969764;28;20969;-72
2023/09/11 11:51:28;;;;;;;4.90;4.50;;;27.10;99.90;;;;;;4965645;28;20469;-72
2023/09/11 11:53:55;;;;;;;4.80;4.60;;;27.30;99.90;;;;;;4972467;28;20463;-72
2023/09/11 11:56:23;;;;;;;5.50;4.90;;;27.50;99.90;;;;;;4974733;28;20976;-72
2023/09/11 11:58:50;;;;;;;4.00;3.80;;;27.40;99.90;;;;;;4956889;28;20484;-73
2023/09/11 12:01:17;;;;;;;5.40;4.93;;;27.60;99.90;;;;;;4967674;28;20523;-71
2023/09/11 12:03:48;;;;;;;5.43;5.00;;;27.60;99.90;;;;;;4964400;28;20472;-70
2023/09/11 12:06:15;;;;;;;4.83;4.60;;;27.50;99.90;;;;;;4966562;28;20472;-71
2023/09/11 12:08:44;;;;;;;3.97;3.87;;;27.40;99.90;;;;;;4973193;28;20462;-72
2023/09/11 12:11:11;;;;;;;4.77;4.47;;;27.30;99.90;;;;;;4962402;28;20543;-71
2023/09/11 12:13:41;;;;;;;5.30;4.90;;;27.30;99.90;;;;;;4960332;28;20811;-70
2023/09/11 12:16:08;;;;;;;4.27;4.03;;;27.30;99.90;;;;;;4957764;28;20496;-71
2023/09/11 12:18:37;;;;;;;5.10;4.80;;;27.40;99.90;;;;;;4964785;28;20550;-71
2023/09/11 12:21:06;;;;;;;4.57;4.30;;;27.40;99.90;;;;;;4960365;28;20488;-72
2023/09/11 12:23:33;;;;;;;5.00;4.70;;;27.50;99.90;;;;;;4961929;28;20826;-69
2023/09/11 12:26:02;;;;;;;4.13;3.93;;;27.50;99.90;;;;;;4963812;28;20485;-72
2023/09/11 12:28:29;;;;;;;4.50;4.30;;;27.50;99.90;;;;;;4964540;28;20989;-71
2023/09/11 12:30:57;;;;;;;4.20;4.00;;;27.50;99.90;;;;;;4960061;28;20465;-71
2023/09/11 12:33:26;;;;;;;5.17;4.87;;;27.50;99.90;;;;;;4953974;28;20472;-71
2023/09/11 12:35:55;;;;;;;5.10;4.70;;;27.60;99.90;;;;;;4967572;28;20489;-71
2023/09/11 12:38:24;;;;;;;4.90;4.40;;;27.60;99.90;;;;;;4965150;28;20475;-72
2023/09/11 12:40:52;;;;;;;5.40;4.90;;;27.70;99.90;;;;;;4967921;28;20966;-70
2023/09/11 12:43:20;;;;;;;4.70;4.50;;;27.70;99.90;;;;;;4963692;28;20815;-69
2023/09/11 12:45:48;;;;;;;4.73;4.43;;;27.70;99.90;;;;;;4958722;28;20494;-70
2023/09/11 12:48:17;;;;;;;4.80;4.60;;;27.80;99.90;;;;;;4962598;28;20467;-71
2023/09/11 12:50:43;;;;;;;4.63;4.33;;;27.70;99.90;;;;;;4953792;28;20548;-70
2023/09/11 12:53:10;;;;;;;5.50;5.17;;;27.80;99.90;;;;;;4953896;28;20468;-72
2023/09/11 12:55:38;;;;;;;4.70;4.40;;;27.80;99.90;;;;;;4954066;28;20488;-70
2023/09/11 12:58:05;;;;;;;4.67;4.37;;;27.90;99.90;;;;;;4957579;28;20465;-70
2023/09/11 13:00:33;;;;;;;6.40;4.83;;;28.00;99.90;;;;;;4960642;28;20503;-70
2023/09/11 13:03:01;;;;;;;4.23;3.93;;;28.00;99.90;;;;;;4953532;28;20948;-70
2023/09/11 13:05:31;;;;;;;5.03;4.73;;;28.00;99.90;;;;;;4955890;28;20487;-70
2023/09/11 13:07:58;;;;;;;5.03;4.70;;;28.10;99.90;;;;;;4953481;28;20468;-70
2023/09/11 13:10:25;;;;;;;4.43;4.00;;;28.00;99.90;;;;;;4955507;28;20836;-70
2023/09/11 13:12:52;;;;;;;3.87;3.67;;;28.00;99.90;;;;;;4959107;28;20544;-70
2023/09/11 13:15:19;;;;;;;3.60;3.40;;;28.00;99.90;;;;;;4965883;28;20484;-70
2023/09/11 13:17:46;;;;;;;3.03;2.93;;;28.00;99.90;;;;;;4960720;28;20476;-70
2023/09/11 13:20:13;;;;;;;4.57;4.27;;;28.00;99.90;;;;;;4963966;28;20495;-70
2023/09/11 13:22:43;;;;;;;3.93;3.77;;;28.00;99.90;;;;;;4953434;28;20469;-70
2023/09/11 13:25:12;;;;;;;3.03;2.93;;;28.00;99.90;;;;;;4971770;28;20491;-70
2023/09/11 13:27:39;;;;;;;3.30;3.20;;;28.00;99.90;;;;;;4962645;28;20500;-70
2023/09/11 13:30:07;;;;;;;3.97;3.57;;;28.00;99.90;;;;;;4969762;28;20463;-70
2023/09/11 13:32:34;;;;;;;5.50;3.67;;;28.10;99.90;;;;;;4965571;28;20465;-70
2023/09/11 13:35:00;;;;;;;3.77;3.47;;;28.10;99.90;;;;;;4960603;28;20712;-70
2023/09/11 13:37:27;;;;;;;4.00;3.80;;;28.00;99.90;;;;;;4959962;28;20912;-70
2023/09/11 13:39:55;;;;;;;3.60;3.30;;;28.10;99.90;;;;;;4964475;28;20510;-70
2023/09/11 13:42:24;;;;;;;3.80;3.60;;;28.10;99.90;;;;;;4969740;28;20468;-70
2023/09/11 13:44:51;;;;;;;3.70;3.40;;;28.10;99.90;;;;;;4960211;28;20575;-71
2023/09/11 13:47:17;;;;;;;3.50;3.30;;;28.10;99.90;;;;;;4952943;28;20519;-73
2023/09/11 13:49:44;;;;;;;3.00;2.90;;;28.10;99.90;;;;;;4958605;28;20820;-71
2023/09/11 13:52:11;;;;;;;3.70;3.50;;;28.10;99.90;;;;;;4952968;28;20488;-71
2023/09/11 13:54:37;;;;;;;3.53;3.33;;;28.10;99.90;;;;;;4953027;28;20512;-72
2023/09/11 13:57:05;;;;;;;3.80;3.60;;;28.00;99.90;;;;;;4955608;28;20468;-71
2023/09/11 13:59:32;;;;;;;4.63;3.60;;;28.10;99.90;;;;;;4954929;28;20457;-70
2023/09/11 14:01:59;;;;;;;3.90;3.60;;;28.10;99.90;;;;;;4964438;28;20820;-71
2023/09/11 14:04:26;;;;;;;3.13;2.93;;;28.10;99.90;;;;;;4958169;28;20488;-72
2023/09/11 14:06:52;;;;;;;3.90;3.63;;;28.00;99.90;;;;;;4957580;28;20464;-71
2023/09/11 14:09:19;;;;;;;3.10;2.90;;;28.00;99.90;;;;;;4957761;28;20460;-73
2023/09/11 14:11:46;;;;;;;4.20;3.90;;;28.10;99.90;;;;;;4960263;28;20480;-73
2023/09/11 14:14:14;;;;;;;4.07;3.77;;;28.10;99.90;;;;;;4961124;28;20496;-72
2023/09/11 14:16:40;;;;;;;4.40;3.20;;;28.10;99.90;;;;;;4960842;28;20808;-72
2023/09/11 14:19:08;;;;;;;4.50;3.70;;;28.20;99.90;;;;;;4970950;28;20467;-72
2023/09/11 14:21:34;;;;;;;4.77;3.83;;;28.20;99.90;;;;;;4965545;28;20483;-71
2023/09/11 14:24:02;;;;;;;3.13;2.80;;;28.20;99.90;;;;;;4965460;28;20465;-72
2023/09/11 14:26:28;;;;;;;6.07;3.03;;;28.20;99.90;;;;;;4959608;28;20524;-72
2023/09/11 14:28:55;;;;;;;5.43;3.20;;;28.30;99.90;;;;;;4965002;28;20463;-72
2023/09/11 14:31:23;;;;;;;4.13;2.80;;;28.30;99.90;;;;;;4966439;28;20475;-72
2023/09/11 14:33:51;;;;;;;4.00;3.50;;;28.30;99.90;;;;;;4967411;28;20495;-72
2023/09/11 14:36:18;;;;;;;4.80;3.27;;;28.30;99.90;;;;;;4966068;28;20475;-72
2023/09/11 14:38:45;;;;;;;3.40;2.50;;;28.40;99.90;;;;;;4966077;28;20471;-72
2023/09/11 14:41:12;;;;;;;5.60;2.80;;;28.30;99.90;;;;;;4964732;28;20603;-72
2023/09/11 14:43:38;;;;;;;3.30;3.10;;;28.30;99.90;;;;;;4965942;28;20478;-71
2023/09/11 14:46:05;;;;;;;2.60;2.50;;;28.40;99.90;;;;;;4965984;28;20484;-72
2023/09/11 14:48:33;;;;;;;3.30;3.03;;;28.40;99.90;;;;;;4966014;28;21200;-72
2023/09/11 14:51:00;;;;;;;6.37;3.40;;;28.40;99.90;;;;;;4969565;28;20495;-72
2023/09/11 14:53:38;;;;;;;3.40;3.20;;;28.40;99.90;;;;;;4966128;28;21301;-72
2023/09/11 14:56:05;;;;;;;10.10;4.03;;;28.40;99.90;;;;;;4965488;28;20483;-72
2023/09/11 14:58:31;;;;;;;3.33;3.13;;;28.50;99.90;;;;;;4964652;28;20987;-72
2023/09/11 15:00:58;;;;;;;3.80;3.20;;;28.40;99.90;;;;;;4966598;28;20480;-71
2023/09/11 15:03:25;;;;;;;3.83;3.40;;;28.40;99.90;;;;;;4967077;28;21080;-73
2023/09/11 15:05:53;;;;;;;4.00;3.67;;;28.40;99.90;;;;;;4964236;28;20512;-72
2023/09/11 15:08:19;;;;;;;3.93;3.33;;;28.40;99.90;;;;;;4962762;28;20468;-72
2023/09/11 15:10:47;;;;;;;3.83;2.90;;;28.30;99.90;;;;;;4964486;28;20460;-72
2023/09/11 15:13:14;;;;;;;5.07;3.33;;;28.30;99.90;;;;;;4969682;28;20882;-72
2023/09/11 15:15:42;;;;;;;5.70;3.20;;;28.30;99.90;;;;;;4965222;28;20615;-72
2023/09/11 15:18:10;;;;;;;2.90;2.80;;;28.30;99.90;;;;;;4961255;28;20602;-72
2023/09/11 15:20:37;;;;;;;2.90;2.80;;;28.30;99.90;;;;;;4970374;28;20490;-72
2023/09/11 15:23:05;;;;;;;3.03;2.83;;;28.30;99.90;;;;;;4966388;28;20461;-72
2023/09/11 15:25:31;;;;;;;3.67;3.47;;;28.30;99.90;;;;;;4959430;28;20487;-72
2023/09/11 15:27:58;;;;;;;4.60;3.27;;;28.30;99.90;;;;;;4965400;28;20479;-71
2023/09/11 15:30:25;;;;;;;3.37;3.20;;;28.30;99.90;;;;;;4966073;28;20201;-72
2023/09/11 15:32:55;;;;;;;3.30;3.10;;;28.30;99.90;;;;;;4968281;28;20539;-72
2023/09/11 15:35:22;;;;;;;4.33;3.50;;;28.20;99.90;;;;;;4963177;28;20496;-71
2023/09/11 15:37:49;;;;;;;3.67;3.47;;;28.20;99.90;;;;;;4971086;28;20479;-71
2023/09/11 15:40:17;;;;;;;3.30;3.10;;;28.20;99.90;;;;;;4961865;28;20994;-72
2023/09/11 15:42:45;;;;;;;3.60;3.30;;;28.10;99.90;;;;;;4968575;28;20785;-72
2023/09/11 15:45:11;;;;;;;4.30;2.90;;;28.10;99.90;;;;;;4954413;28;20543;-72
2023/09/11 15:47:38;;;;;;;4.20;3.60;;;28.00;99.90;;;;;;4973192;28;20558;-71
2023/09/11 15:50:05;;;;;;;4.20;3.23;;;28.00;99.90;;;;;;4965152;28;20926;-72
2023/09/11 15:52:32;;;;;;;3.43;3.23;;;28.10;99.90;;;;;;4968615;28;20456;-71
2023/09/11 15:54:59;;;;;;;5.40;3.43;;;28.00;99.90;;;;;;4971308;28;20484;-72
2023/09/11 15:57:27;;;;;;;3.40;3.20;;;28.10;99.90;;;;;;4967784;28;20476;-72
2023/09/11 15:59:54;;;;;;;4.93;4.03;;;28.00;99.90;;;;;;4960505;28;20491;-70
2023/09/11 16:02:20;;;;;;;3.37;3.27;;;28.00;99.90;;;;;;4973039;28;20492;-71
2023/09/11 16:04:47;;;;;;;4.37;4.07;;;28.00;99.90;;;;;;4964543;28;20496;-72
2023/09/11 16:07:14;;;;;;;4.27;3.90;;;28.00;99.90;;;;;;4960131;28;20504;-72
2023/09/11 16:09:40;;;;;;;3.63;3.43;;;27.90;99.90;;;;;;4953929;28;20503;-73
2023/09/11 16:12:07;;;;;;;3.80;3.50;;;27.90;99.90;;;;;;4953746;28;20473;-72
2023/09/11 16:14:35;;;;;;;3.47;3.17;;;27.90;99.90;;;;;;4959250;28;20580;-71
2023/09/11 16:17:02;;;;;;;3.27;2.97;;;27.80;99.90;;;;;;4972326;28;20475;-71
2023/09/11 16:19:29;;;;;;;4.20;3.67;;;27.80;99.90;;;;;;4964962;28;20469;-71
2023/09/11 16:21:55;;;;;;;3.90;3.70;;;27.70;99.90;;;;;;4959757;28;20496;-71
2023/09/11 16:24:22;;;;;;;4.10;4.00;;;27.70;99.90;;;;;;4964473;28;20484;-72
2023/09/11 16:26:49;;;;;;;3.83;3.60;;;27.70;99.90;;;;;;4958710;28;20986;-71
2023/09/11 16:29:17;;;;;;;4.23;3.83;;;27.60;99.90;;;;;;4964049;28;20465;-70
2023/09/11 16:31:46;;;;;;;4.10;3.83;;;27.60;99.90;;;;;;4968267;28;20456;-71
2023/09/11 16:34:13;;;;;;;4.33;3.93;;;27.50;99.90;;;;;;4965629;28;20855;-71
2023/09/11 16:36:40;;;;;;;4.73;4.33;;;27.40;99.90;;;;;;4964112;28;20537;-71
2023/09/11 16:39:06;;;;;;;4.33;3.90;;;27.40;99.90;;;;;;4965204;28;20844;-72
2023/09/11 16:41:33;;;;;;;4.40;4.10;;;27.30;99.90;;;;;;4953804;28;20500;-72
2023/09/11 16:44:00;;;;;;;5.13;4.77;;;27.30;99.90;;;;;;4963394;28;20474;-72